createdAt,value
2023-03-18T00:04:27.810Z,4.28
2023-03-18T00:09:29.119Z,4.25
2023-03-18T00:14:31.180Z,4.38
2023-03-18T00:19:33.671Z,4.88
2023-03-18T00:24:34.985Z,4.60
2023-03-18T00:29:36.304Z,4.78
2023-03-18T00:34:37.681Z,4.28
2023-03-18T00:39:44.174Z,4.63
2023-03-18T00:44:45.527Z,4.70
2023-03-18T00:49:48.306Z,4.63
2023-03-18T00:54:50.252Z,5.45
2023-03-18T00:59:51.855Z,4.65
2023-03-18T01:04:53.242Z,5.40
2023-03-18T01:09:54.809Z,4.90
2023-03-18T01:14:56.274Z,5.57
2023-03-18T01:19:57.765Z,4.85
2023-03-18T01:24:59.191Z,4.82
2023-03-18T01:30:00.717Z,4.90
2023-03-18T01:35:02.250Z,4.70
2023-03-18T01:40:03.712Z,4.97
2023-03-18T01:45:18.122Z,4.32
2023-03-18T01:50:21.873Z,4.95
2023-03-18T01:55:25.436Z,4.77
2023-03-18T02:00:28.507Z,4.00
2023-03-18T02:05:30.511Z,5.20
2023-03-18T02:10:33.137Z,4.50
2023-03-18T02:15:36.625Z,4.70
2023-03-18T02:21:08.452Z,4.45
2023-03-18T02:26:19.092Z,4.90
2023-03-18T02:31:20.901Z,4.38
2023-03-18T02:36:27.830Z,4.90
2023-03-18T02:41:32.407Z,4.10
2023-03-18T02:46:54.079Z,4.38
2023-03-18T02:51:55.555Z,4.50
2023-03-18T02:56:57.356Z,5.07
2023-03-18T03:01:58.755Z,3.97
2023-03-18T03:07:01.502Z,4.75
2023-03-18T03:12:03.107Z,4.80
2023-03-18T03:17:04.515Z,4.63
2023-03-18T03:22:06.971Z,4.68
2023-03-18T03:27:08.466Z,4.68
2023-03-18T03:32:10.041Z,5.07
2023-03-18T03:37:11.424Z,4.90
2023-03-18T03:42:12.816Z,5.13
2023-03-18T03:47:14.485Z,4.85
2023-03-18T03:52:18.132Z,4.95
2023-03-18T03:57:19.558Z,4.43
2023-03-18T04:02:23.581Z,4.80
2023-03-18T04:07:25.371Z,5.05
2023-03-18T04:12:26.753Z,5.30
2023-03-18T04:17:28.176Z,4.97
2023-03-18T04:22:29.774Z,4.78
2023-03-18T04:27:32.239Z,4.88
2023-03-18T04:32:33.831Z,4.63
2023-03-18T04:37:37.442Z,5.32
2023-03-18T04:42:39.330Z,5.83
2023-03-18T04:47:41.759Z,5.45
2023-03-18T04:52:44.979Z,4.82
2023-03-18T04:57:46.330Z,5.03
2023-03-18T05:02:48.050Z,5.50
2023-03-18T05:07:49.375Z,4.57
2023-03-18T05:12:51.538Z,4.97
2023-03-18T05:17:52.985Z,5.00
2023-03-18T05:22:54.505Z,4.72
2023-03-18T05:27:57.737Z,5.55
2023-03-18T05:32:59.562Z,5.28
2023-03-18T05:38:01.699Z,4.75
2023-03-18T05:43:04.003Z,5.40
2023-03-18T05:48:06.564Z,5.35
2023-03-18T05:53:08.490Z,5.35
2023-03-18T05:58:10.888Z,6.40
2023-03-18T06:03:12.230Z,5.80
2023-03-18T06:08:15.505Z,5.50
2023-03-18T06:13:17.382Z,6.47
2023-03-18T06:18:18.809Z,5.97
2023-03-18T06:23:21.704Z,6.57
2023-03-18T06:28:23.045Z,5.90
2023-03-18T06:33:25.724Z,6.45
2023-03-18T06:38:28.730Z,6.43
2023-03-18T06:43:31.091Z,6.57
2023-03-18T06:48:32.898Z,7.20
2023-03-18T06:53:36.291Z,14.65
2023-03-18T06:58:37.774Z,6.65
2023-03-18T07:03:39.239Z,6.35
2023-03-18T07:08:40.966Z,6.78
2023-03-18T07:13:42.362Z,6.65
2023-03-18T07:18:43.689Z,5.97
2023-03-18T07:23:45.210Z,5.85
2023-03-18T07:28:46.555Z,7.07
2023-03-18T07:33:48.730Z,7.25
2023-03-18T07:38:50.055Z,6.90
2023-03-18T07:43:51.535Z,7.53
2023-03-18T07:48:53.084Z,7.80
2023-03-18T07:53:55.205Z,7.30
2023-03-18T07:58:56.647Z,7.47
2023-03-18T08:03:58.081Z,7.70
2023-03-18T08:08:59.985Z,7.90
2023-03-18T08:14:01.649Z,8.27
2023-03-18T08:19:03.606Z,8.95
2023-03-18T08:24:05.210Z,10.35
2023-03-18T08:29:06.696Z,10.75
2023-03-18T08:34:08.603Z,11.30
2023-03-18T08:39:09.962Z,11.88
2023-03-18T08:44:11.374Z,12.55
2023-03-18T08:49:14.012Z,13.82
2023-03-18T08:54:15.479Z,14.85
2023-03-18T08:59:17.689Z,17.83
2023-03-18T09:04:20.072Z,18.40
2023-03-18T09:09:24.477Z,21.05
2023-03-18T09:14:28.002Z,22.52
2023-03-18T09:19:29.452Z,25.17
2023-03-18T09:24:31.605Z,24.45
2023-03-18T09:29:33.022Z,26.48
2023-03-18T09:34:34.373Z,25.98
2023-03-18T09:39:35.755Z,29.08
2023-03-18T09:44:37.575Z,27.35
2023-03-18T09:49:59.294Z,28.13
2023-03-18T09:55:19.690Z,28.73
2023-03-18T10:00:34.498Z,32.28
2023-03-18T10:05:48.637Z,31.80
2023-03-18T10:10:50.032Z,34.80
2023-03-18T10:15:56.713Z,36.15
2023-03-18T10:20:58.048Z,32.33
2023-03-18T10:26:04.643Z,31.75
2023-03-18T10:31:18.533Z,34.03
2023-03-18T10:36:19.983Z,36.20
2023-03-18T10:41:25.417Z,35.42
2023-03-18T10:46:28.342Z,39.35
2023-03-18T10:51:34.436Z,35.03
2023-03-18T10:56:36.531Z,32.42
2023-03-18T11:01:38.429Z,32.92
2023-03-18T11:06:42.926Z,33.33
2023-03-18T11:11:46.295Z,35.30
2023-03-18T11:16:58.322Z,33.47
2023-03-18T11:22:13.952Z,37.22
2023-03-18T11:27:18.123Z,41.97
2023-03-18T11:32:30.469Z,44.80
2023-03-18T11:37:34.901Z,45.15
2023-03-18T11:42:38.266Z,41.70
2023-03-18T11:47:40.236Z,42.23
2023-03-18T11:52:49.810Z,44.00
2023-03-18T11:58:00.200Z,43.15
2023-03-18T12:03:20.554Z,46.92
2023-03-18T12:08:24.612Z,43.85
2023-03-18T12:13:35.757Z,45.45
2023-03-18T12:18:44.614Z,48.53
2023-03-18T12:24:07.585Z,45.95
2023-03-18T12:29:36.819Z,45.53
2023-03-18T12:34:41.108Z,49.70
2023-03-18T12:39:50.054Z,47.22
2023-03-18T12:44:51.845Z,47.75
2023-03-18T12:49:56.157Z,50.80
2023-03-18T12:54:57.973Z,45.25
2023-03-18T13:00:02.528Z,45.92
2023-03-18T13:05:06.005Z,42.35
2023-03-18T13:10:16.281Z,43.33
2023-03-18T13:15:35.191Z,42.88
2023-03-18T13:20:37.801Z,39.88
2023-03-18T13:25:57.994Z,41.80
2023-03-18T13:31:05.644Z,42.83
2023-03-18T13:36:10.438Z,43.15
2023-03-18T13:41:33.902Z,39.45
2023-03-18T13:46:35.435Z,39.78
2023-03-18T13:51:37.168Z,35.00
2023-03-18T13:56:42.636Z,34.53
2023-03-18T14:01:50.834Z,33.67
2023-03-18T14:06:56.836Z,33.67
2023-03-18T14:12:16.991Z,33.63
2023-03-18T14:17:22.661Z,35.42
2023-03-18T14:22:29.076Z,36.97
2023-03-18T14:27:30.452Z,35.55
2023-03-18T14:32:35.140Z,34.95
2023-03-18T14:37:53.676Z,35.38
2023-03-18T14:43:03.495Z,34.53
2023-03-18T14:48:11.870Z,34.78
2023-03-18T14:53:25.821Z,33.35
2023-03-18T14:58:28.243Z,31.73
2023-03-18T15:03:31.084Z,31.98
2023-03-18T15:08:46.915Z,31.67
2023-03-18T15:13:48.997Z,28.15
2023-03-18T15:18:54.849Z,28.65
2023-03-18T15:23:57.783Z,29.98
2023-03-18T15:29:00.599Z,29.33
2023-03-18T15:34:05.156Z,27.80
2023-03-18T15:39:19.240Z,28.17
2023-03-18T15:44:25.217Z,29.15
2023-03-18T15:49:27.480Z,28.20
2023-03-18T15:54:30.979Z,26.13
2023-03-18T15:59:32.478Z,58.00
2023-03-18T16:04:35.345Z,34.05
2023-03-18T16:09:36.827Z,27.90
2023-03-18T16:14:39.819Z,29.05
2023-03-18T16:19:41.389Z,29.00
2023-03-18T16:24:43.850Z,27.80
2023-03-18T16:29:45.207Z,30.52
2023-03-18T16:34:46.948Z,29.13
2023-03-18T16:39:48.369Z,30.75
2023-03-18T16:44:49.979Z,32.72
2023-03-18T16:49:51.333Z,33.17
2023-03-18T16:54:52.716Z,32.40
2023-03-18T16:59:56.529Z,32.78
2023-03-18T17:04:58.163Z,34.33
2023-03-18T17:09:59.883Z,32.60
2023-03-18T17:15:01.400Z,30.05
2023-03-18T17:20:04.069Z,31.92
2023-03-18T17:25:05.652Z,30.00
2023-03-18T17:30:30.340Z,32.00
2023-03-18T17:35:32.374Z,31.65
2023-03-18T17:40:33.910Z,30.35
2023-03-18T17:45:35.614Z,31.10
2023-03-18T17:50:37.296Z,29.95
2023-03-18T17:55:38.642Z,33.13
2023-03-18T18:00:40.050Z,30.38
2023-03-18T18:05:41.832Z,31.52
2023-03-18T18:10:44.642Z,34.05
2023-03-18T18:15:46.406Z,31.52
2023-03-18T18:20:49.363Z,34.00
2023-03-18T18:25:51.201Z,34.78
2023-03-18T18:30:52.876Z,34.53
2023-03-18T18:35:54.697Z,36.20
2023-03-18T18:40:57.351Z,40.30
2023-03-18T18:46:01.094Z,39.33
2023-03-18T18:51:04.058Z,39.93
2023-03-18T18:56:14.643Z,37.45
2023-03-18T19:01:16.376Z,38.72
2023-03-18T19:06:20.737Z,38.35
2023-03-18T19:11:22.325Z,38.10
2023-03-18T19:16:31.256Z,40.40
2023-03-18T19:21:32.699Z,36.60
2023-03-18T19:26:34.033Z,37.88
2023-03-18T19:31:35.614Z,38.17
2023-03-18T19:36:39.525Z,38.35
2023-03-18T19:41:41.050Z,40.83
2023-03-18T19:46:42.872Z,39.70
2023-03-18T19:51:44.565Z,41.67
2023-03-18T19:56:46.206Z,44.03
2023-03-18T20:01:47.715Z,43.10
2023-03-18T20:06:50.399Z,42.30
2023-03-18T20:11:55.693Z,42.60
2023-03-18T20:17:00.517Z,42.90
2023-03-18T20:22:01.906Z,46.25
2023-03-18T20:27:05.393Z,45.40
2023-03-18T20:32:06.802Z,43.97
2023-03-18T20:37:35.973Z,47.85
2023-03-18T20:42:37.387Z,49.38
2023-03-18T20:47:38.773Z,48.67
2023-03-18T20:52:43.646Z,49.83
2023-03-18T20:57:45.866Z,46.90
2023-03-18T21:02:47.614Z,51.70
2023-03-18T21:07:49.322Z,46.13
2023-03-18T21:12:51.641Z,45.90
2023-03-18T21:17:53.984Z,51.63
2023-03-18T21:22:56.357Z,48.58
2023-03-18T21:27:58.360Z,48.88
2023-03-18T21:32:59.858Z,48.60
2023-03-18T21:38:01.350Z,50.28
2023-03-18T21:43:15.386Z,48.97
2023-03-18T21:48:17.209Z,51.20
2023-03-18T21:53:19.822Z,48.92
2023-03-18T21:58:25.484Z,51.17
2023-03-18T22:03:27.957Z,50.60
2023-03-18T22:08:29.354Z,49.03
2023-03-18T22:13:30.792Z,48.03
2023-03-18T22:18:32.111Z,53.92
2023-03-18T22:23:36.841Z,52.72
2023-03-18T22:28:38.230Z,46.67
2023-03-18T22:33:39.621Z,46.38
2023-03-18T22:38:41.250Z,46.00
2023-03-18T22:43:42.689Z,47.28
2023-03-18T22:48:44.274Z,46.42
2023-03-18T22:53:48.059Z,46.17
2023-03-18T22:58:49.658Z,48.47
2023-03-18T23:03:51.070Z,47.80
2023-03-18T23:08:52.441Z,45.95
2023-03-18T23:13:54.485Z,45.83
2023-03-18T23:18:55.973Z,48.17
2023-03-18T23:23:58.154Z,47.22
2023-03-18T23:28:59.466Z,50.33
2023-03-18T23:34:01.071Z,50.22
2023-03-18T23:39:02.702Z,47.45
2023-03-18T23:44:04.093Z,49.20
2023-03-18T23:49:05.486Z,50.25
2023-03-18T23:54:08.117Z,53.28
2023-03-18T23:59:09.538Z,51.13
